createdAt,value
2018-04-23T00:00:10.835Z,17.79
2018-04-23T00:01:10.570Z,17.66
2018-04-23T00:02:10.567Z,17.73
2018-04-23T00:03:10.824Z,17.6
2018-04-23T00:04:10.819Z,17.54
2018-04-23T00:05:10.818Z,17.55
2018-04-23T00:06:10.813Z,17.5
2018-04-23T00:07:10.824Z,17.55
2018-04-23T00:08:10.841Z,17.5
2018-04-23T00:09:10.809Z,17.46
2018-04-23T00:10:11.023Z,17.4
2018-04-23T00:11:10.792Z,17.36
2018-04-23T00:12:10.795Z,17.25
2018-04-23T00:13:10.533Z,17.2
2018-04-23T00:14:10.787Z,17.18
2018-04-23T00:15:10.778Z,17.07
2018-04-23T00:16:10.516Z,17.07
2018-04-23T00:17:10.522Z,17.06
2018-04-23T00:18:10.509Z,17.02
2018-04-23T00:19:10.510Z,16.99
2018-04-23T00:20:10.521Z,16.94
2018-04-23T00:21:10.500Z,16.87
2018-04-23T00:22:10.756Z,16.95
2018-04-23T00:23:10.593Z,16.77
2018-04-23T00:24:10.750Z,16.8
2018-04-23T00:25:10.229Z,16.67
2018-04-23T00:26:10.482Z,16.72
2018-04-23T00:27:10.739Z,16.69
2018-04-23T00:28:10.472Z,16.69
2018-04-23T00:29:10.213Z,16.67
2018-04-23T00:30:10.689Z,16.52
2018-04-23T00:31:10.463Z,16.59
2018-04-23T00:32:10.459Z,16.62
2018-04-23T00:33:10.196Z,16.54
2018-04-23T00:34:10.725Z,16.57
2018-04-23T00:35:10.705Z,16.62
2018-04-23T00:36:10.441Z,16.62
2018-04-23T00:37:10.435Z,16.57
2018-04-23T00:38:10.431Z,16.54
2018-04-23T00:39:10.692Z,16.59
2018-04-23T00:40:10.683Z,16.52
2018-04-23T00:41:10.676Z,16.45
2018-04-23T00:42:10.416Z,16.52
2018-04-23T00:43:10.154Z,16.51
2018-04-23T00:44:10.679Z,16.48
2018-04-23T00:45:10.679Z,16.42
2018-04-23T00:46:10.397Z,16.44
2018-04-23T00:47:10.399Z,16.34
2018-04-23T00:48:10.666Z,16.36
2018-04-23T00:49:10.650Z,16.27
2018-04-23T00:50:10.385Z,16.34
2018-04-23T00:51:10.657Z,16.32
2018-04-23T00:52:10.634Z,16.33
2018-04-23T00:53:10.637Z,16.25
2018-04-23T00:54:10.654Z,16.29
2018-04-23T00:55:10.361Z,16.25
2018-04-23T00:56:10.619Z,16.18
2018-04-23T00:57:10.627Z,16.18
2018-04-23T00:58:10.606Z,16.18
2018-04-23T00:59:10.606Z,16.21
2018-04-23T01:00:10.600Z,16.17
2018-04-23T01:01:10.348Z,16.14
2018-04-23T01:02:10.077Z,16.21
2018-04-23T01:03:10.335Z,16.22
2018-04-23T01:04:10.590Z,16.16
2018-04-23T01:05:10.579Z,16
2018-04-23T01:06:10.314Z,16
2018-04-23T01:07:10.583Z,15.99
2018-04-23T01:08:10.307Z,15.98
2018-04-23T01:09:10.573Z,15.93
2018-04-23T01:10:10.560Z,15.89
2018-04-23T01:11:10.293Z,15.86
2018-04-23T01:12:10.294Z,15.86
2018-04-23T01:13:10.565Z,15.96
2018-04-23T01:14:10.281Z,15.99
2018-04-23T01:15:10.532Z,16.04
2018-04-23T01:16:10.529Z,16.02
2018-04-23T01:17:10.523Z,16.06
2018-04-23T01:18:10.542Z,16.08
2018-04-23T01:19:10.517Z,16.21
2018-04-23T01:20:10.251Z,16.17
2018-04-23T01:21:10.252Z,16.25
2018-04-23T01:22:10.251Z,16.3
2018-04-23T01:23:10.240Z,16.18
2018-04-23T01:24:10.500Z,16.27
2018-04-23T01:25:09.977Z,16.25
2018-04-23T01:26:10.227Z,16.27
2018-04-23T01:27:10.227Z,16.3
2018-04-23T01:28:10.476Z,16.26
2018-04-23T01:29:10.473Z,16.36
2018-04-23T01:30:10.491Z,16.36
2018-04-23T01:31:10.460Z,16.27
2018-04-23T01:32:09.941Z,16.27
2018-04-23T01:33:10.451Z,16.29
2018-04-23T01:34:09.931Z,16.26
2018-04-23T01:35:09.927Z,16.29
2018-04-23T01:36:10.442Z,16.34
2018-04-23T01:37:10.444Z,16.3
2018-04-23T01:38:10.428Z,16.29
2018-04-23T01:39:10.424Z,16.22
2018-04-23T01:40:10.424Z,16.14
2018-04-23T01:41:10.415Z,16.17
2018-04-23T01:42:10.156Z,16.17
2018-04-23T01:43:10.147Z,16.07
2018-04-23T01:44:10.405Z,16.04
2018-04-23T01:45:10.408Z,15.93
2018-04-23T01:46:10.396Z,15.93
2018-04-23T01:47:10.390Z,15.86
2018-04-23T01:48:10.388Z,15.84
2018-04-23T01:49:10.126Z,15.89
2018-04-23T01:50:10.382Z,15.74
2018-04-23T01:51:10.116Z,15.74
2018-04-23T01:52:10.108Z,15.71
2018-04-23T01:53:10.363Z,15.73
2018-04-23T01:54:10.356Z,15.75
2018-04-23T01:55:10.358Z,15.7
2018-04-23T01:56:10.345Z,15.74
2018-04-23T01:57:10.341Z,15.59
2018-04-23T01:58:10.094Z,15.71
2018-04-23T01:59:10.407Z,15.58
2018-04-23T02:00:10.324Z,15.59
2018-04-23T02:01:10.318Z,15.59
2018-04-23T02:02:09.804Z,15.63
2018-04-23T02:03:10.326Z,15.71
2018-04-23T02:04:10.311Z,15.68
2018-04-23T02:05:10.290Z,15.68
2018-04-23T02:06:10.298Z,15.58
2018-04-23T02:07:10.297Z,15.63
2018-04-23T02:08:10.287Z,15.53
2018-04-23T02:09:10.284Z,15.53
2018-04-23T02:10:10.280Z,15.6
2018-04-23T02:11:10.272Z,15.55
2018-04-23T02:12:10.287Z,15.65
2018-04-23T02:13:10.004Z,15.62
2018-04-23T02:14:10.263Z,15.6
2018-04-23T02:15:09.738Z,15.65
2018-04-23T02:16:10.072Z,15.62
2018-04-23T02:17:09.984Z,15.65
2018-04-23T02:18:10.246Z,15.74
2018-04-23T02:19:10.232Z,15.7
2018-04-23T02:20:10.240Z,15.71
2018-04-23T02:21:09.966Z,15.7
2018-04-23T02:22:09.959Z,15.7
2018-04-23T02:23:10.194Z,15.77
2018-04-23T02:24:10.210Z,15.8
2018-04-23T02:25:10.202Z,15.74
2018-04-23T02:26:09.944Z,15.77
2018-04-23T02:27:10.195Z,15.84
2018-04-23T02:28:10.229Z,15.93
2018-04-23T02:29:10.187Z,15.96
2018-04-23T02:30:10.186Z,15.95
2018-04-23T02:31:09.915Z,16.02
2018-04-23T02:32:09.911Z,15.99
2018-04-23T02:33:09.911Z,16.02
2018-04-23T02:34:09.910Z,16.07
2018-04-23T02:35:10.166Z,15.93
2018-04-23T02:36:09.637Z,15.96
2018-04-23T02:37:09.890Z,15.93
2018-04-23T02:38:10.151Z,15.93
2018-04-23T02:39:10.165Z,15.95
2018-04-23T02:40:09.883Z,15.96
2018-04-23T02:41:09.874Z,15.95
2018-04-23T02:42:09.864Z,15.88
2018-04-23T02:43:10.122Z,15.75
2018-04-23T02:44:09.855Z,15.73
2018-04-23T02:45:09.852Z,15.71
2018-04-23T02:46:09.844Z,15.75
2018-04-23T02:47:09.838Z,15.75
2018-04-23T02:48:09.842Z,15.77
2018-04-23T02:49:09.846Z,15.83
2018-04-23T02:50:10.118Z,15.78
2018-04-23T02:51:10.091Z,15.74
2018-04-23T02:52:09.816Z,15.77
2018-04-23T02:53:10.073Z,15.77
2018-04-23T02:54:09.549Z,15.73
2018-04-23T02:55:09.820Z,15.73
2018-04-23T02:56:10.064Z,15.71
2018-04-23T02:57:10.079Z,15.74
2018-04-23T02:58:10.058Z,15.77
2018-04-23T02:59:09.780Z,15.77
2018-04-23T03:00:10.034Z,15.74
2018-04-23T03:01:09.773Z,15.74
2018-04-23T03:02:09.768Z,15.77
2018-04-23T03:03:09.780Z,15.77
2018-04-23T03:04:10.016Z,15.73
2018-04-23T03:05:09.771Z,15.74
2018-04-23T03:06:10.019Z,15.78
2018-04-23T03:07:09.485Z,15.77
2018-04-23T03:08:09.733Z,15.62
2018-04-23T03:09:09.728Z,15.68
2018-04-23T03:10:09.736Z,15.62
2018-04-23T03:11:09.722Z,15.7
2018-04-23T03:12:09.719Z,15.74
2018-04-23T03:13:09.716Z,15.7
2018-04-23T03:14:09.969Z,15.6
2018-04-23T03:15:09.977Z,15.68
2018-04-23T03:16:09.956Z,15.63
2018-04-23T03:17:10.006Z,15.68
2018-04-23T03:18:09.948Z,15.56
2018-04-23T03:19:09.683Z,15.59
2018-04-23T03:20:09.936Z,15.51
2018-04-23T03:21:09.669Z,15.51
2018-04-23T03:22:09.669Z,15.53
2018-04-23T03:23:09.916Z,15.52
2018-04-23T03:24:09.670Z,15.45
2018-04-23T03:25:09.651Z,15.45
2018-04-23T03:26:09.649Z,15.4
2018-04-23T03:27:09.652Z,15.41
2018-04-23T03:28:09.638Z,15.4
2018-04-23T03:29:09.633Z,15.45
2018-04-23T03:30:09.886Z,15.45
2018-04-23T03:31:09.895Z,15.43
2018-04-23T03:32:10.099Z,15.49
2018-04-23T03:33:09.609Z,15.47
2018-04-23T03:34:09.605Z,15.45
2018-04-23T03:35:09.862Z,15.44
2018-04-23T03:36:09.594Z,15.45
2018-04-23T03:37:09.990Z,15.43
2018-04-23T03:38:09.325Z,15.4
2018-04-23T03:39:09.582Z,15.44
2018-04-23T03:40:09.830Z,15.3
2018-04-23T03:41:09.843Z,15.3
2018-04-23T03:42:09.587Z,15.27
2018-04-23T03:43:09.815Z,15.37
2018-04-23T03:44:09.810Z,15.33
2018-04-23T03:45:09.289Z,15.41
2018-04-23T03:46:09.802Z,15.45
2018-04-23T03:47:09.795Z,15.31
2018-04-23T03:48:09.531Z,15.35
2018-04-23T03:49:09.550Z,15.35
2018-04-23T03:50:09.782Z,15.31
2018-04-23T03:51:09.774Z,15.33
2018-04-23T03:52:09.509Z,15.37
2018-04-23T03:53:09.769Z,15.34
2018-04-23T03:54:09.245Z,15.2
2018-04-23T03:55:09.767Z,15.22
2018-04-23T03:56:09.749Z,15.16
2018-04-23T03:57:09.510Z,15.12
2018-04-23T03:58:09.480Z,15.05
2018-04-23T03:59:09.476Z,15.08
2018-04-23T04:00:09.724Z,15.05
2018-04-23T04:01:09.722Z,15.02
2018-04-23T04:02:09.463Z,15.01
2018-04-23T04:03:09.714Z,15.04
2018-04-23T04:04:09.924Z,15.05
2018-04-23T04:05:09.440Z,15.04
2018-04-23T04:06:09.441Z,15.04
2018-04-23T04:07:09.687Z,15.07
2018-04-23T04:08:09.442Z,14.98
2018-04-23T04:09:09.425Z,15.04
2018-04-23T04:10:09.159Z,15.02
2018-04-23T04:11:09.673Z,15.12
2018-04-23T04:12:09.885Z,15.19
2018-04-23T04:13:09.141Z,15.13
2018-04-23T04:14:09.392Z,15.13
2018-04-23T04:15:09.388Z,15.12
2018-04-23T04:16:09.845Z,15.25
2018-04-23T04:17:09.396Z,15.25
2018-04-23T04:18:09.372Z,15.33
2018-04-23T04:19:09.635Z,15.31
2018-04-23T04:20:09.360Z,15.3
2018-04-23T04:21:09.615Z,15.35
2018-04-23T04:22:09.831Z,15.35
2018-04-23T04:23:09.090Z,15.37
2018-04-23T04:24:09.340Z,15.45
2018-04-23T04:25:09.335Z,15.37
2018-04-23T04:26:09.076Z,15.49
2018-04-23T04:27:09.582Z,15.35
2018-04-23T04:28:09.577Z,15.35
2018-04-23T04:29:09.576Z,15.4
2018-04-23T04:30:09.583Z,15.4
2018-04-23T04:31:09.583Z,15.41
2018-04-23T04:32:09.306Z,15.41
2018-04-23T04:33:09.290Z,15.47
2018-04-23T04:34:09.288Z,15.47
2018-04-23T04:35:09.282Z,15.4
2018-04-23T04:36:09.532Z,15.49
2018-04-23T04:37:09.270Z,15.44
2018-04-23T04:38:09.266Z,15.43
2018-04-23T04:39:09.519Z,15.51
2018-04-23T04:40:09.513Z,15.52
2018-04-23T04:41:09.248Z,15.56
2018-04-23T04:42:09.518Z,15.67
2018-04-23T04:43:09.240Z,15.59
2018-04-23T04:44:09.495Z,15.68
2018-04-23T04:45:09.489Z,15.75
2018-04-23T04:46:09.481Z,15.75
2018-04-23T04:47:09.419Z,15.74
2018-04-23T04:48:09.211Z,15.77
2018-04-23T04:49:09.210Z,15.89
2018-04-23T04:50:09.459Z,15.89
2018-04-23T04:51:09.196Z,15.86
2018-04-23T04:52:09.191Z,15.89
2018-04-23T04:53:09.447Z,15.89
2018-04-23T04:54:09.183Z,15.84
2018-04-23T04:55:09.435Z,15.88
2018-04-23T04:56:09.445Z,15.98
2018-04-23T04:57:09.445Z,15.99
2018-04-23T04:58:09.419Z,15.95
2018-04-23T04:59:09.574Z,16.04
2018-04-23T05:00:09.154Z,15.93
2018-04-23T05:01:09.414Z,16.06
2018-04-23T05:02:09.421Z,16.04
2018-04-23T05:03:09.393Z,16.18
2018-04-23T05:04:09.391Z,16.16
2018-04-23T05:05:09.130Z,16.16
2018-04-23T05:06:09.382Z,16.11
2018-04-23T05:07:08.876Z,16.21
2018-04-23T05:08:09.371Z,16.18
2018-04-23T05:09:09.112Z,16.14
2018-04-23T05:10:09.365Z,16.22
2018-04-23T05:11:09.358Z,16.25
2018-04-23T05:12:09.358Z,16.17
2018-04-23T05:13:08.852Z,16.25
2018-04-23T05:14:09.565Z,16.29
2018-04-23T05:15:09.189Z,16.18
2018-04-23T05:16:08.837Z,16.27
2018-04-23T05:17:09.537Z,16.27
2018-04-23T05:18:09.551Z,16.26
2018-04-23T05:19:09.113Z,16.29
2018-04-23T05:20:09.316Z,16.3
2018-04-23T05:21:09.383Z,16.34
2018-04-23T05:22:09.158Z,16.37
2018-04-23T05:23:09.111Z,16.49
2018-04-23T05:24:09.038Z,16.45
2018-04-23T05:25:09.122Z,16.48
2018-04-23T05:26:09.031Z,16.54
2018-04-23T05:27:09.031Z,16.63
2018-04-23T05:28:08.764Z,16.7
2018-04-23T05:29:09.340Z,16.59
2018-04-23T05:30:09.390Z,16.66
2018-04-23T05:31:09.008Z,16.66
2018-04-23T05:32:08.788Z,16.72
2018-04-23T05:33:09.264Z,16.73
2018-04-23T05:34:09.099Z,16.74
2018-04-23T05:35:09.251Z,16.67
2018-04-23T05:36:08.985Z,16.69
2018-04-23T05:37:09.297Z,16.73
2018-04-23T05:38:09.003Z,16.7
2018-04-23T05:39:09.021Z,16.73
2018-04-23T05:40:09.225Z,16.7
2018-04-23T05:41:09.264Z,16.69
2018-04-23T05:42:08.959Z,16.67
2018-04-23T05:43:08.991Z,16.67
2018-04-23T05:44:09.034Z,16.67
2018-04-23T05:45:08.949Z,16.73
2018-04-23T05:46:08.946Z,16.81
2018-04-23T05:47:09.218Z,16.76
2018-04-23T05:48:08.932Z,16.81
2018-04-23T05:49:09.188Z,17
2018-04-23T05:50:08.930Z,17
2018-04-23T05:51:09.182Z,17.12
2018-04-23T05:52:09.194Z,17.12
2018-04-23T05:53:08.919Z,17.25
2018-04-23T05:54:09.169Z,17.21
2018-04-23T05:55:09.239Z,17.42
2018-04-23T05:56:10.135Z,17.5
2018-04-23T05:57:09.176Z,17.55
2018-04-23T05:58:08.896Z,17.5
2018-04-23T05:59:09.152Z,17.54
2018-04-23T06:00:09.294Z,17.73
2018-04-23T06:01:08.884Z,17.79
2018-04-23T06:02:09.155Z,17.84
2018-04-23T06:03:08.978Z,17.88
2018-04-23T06:04:08.873Z,17.95
2018-04-23T06:05:09.168Z,17.98
2018-04-23T06:06:09.127Z,18.05
2018-04-23T06:07:09.138Z,18.11
2018-04-23T06:08:08.860Z,18.05
2018-04-23T06:09:08.852Z,18.11
2018-04-23T06:10:08.851Z,18.05
2018-04-23T06:11:08.852Z,18.17
2018-04-23T06:12:08.849Z,18.23
2018-04-23T06:13:08.839Z,18.2
2018-04-23T06:14:09.099Z,18.23
2018-04-23T06:15:09.100Z,18.23
2018-04-23T06:16:08.833Z,18.32
2018-04-23T06:17:09.310Z,18.31
2018-04-23T06:18:09.081Z,18.2
2018-04-23T06:19:09.079Z,18.29
2018-04-23T06:20:09.079Z,18.31
2018-04-23T06:21:08.820Z,18.39
2018-04-23T06:22:09.069Z,18.35
2018-04-23T06:23:09.065Z,18.38
2018-04-23T06:24:09.063Z,18.5
2018-04-23T06:25:08.810Z,18.6
2018-04-23T06:26:09.095Z,18.63
2018-04-23T06:27:08.797Z,18.68
2018-04-23T06:28:09.104Z,18.75
2018-04-23T06:29:09.049Z,18.76
2018-04-23T06:30:09.049Z,18.89
2018-04-23T06:31:09.123Z,18.91
2018-04-23T06:32:09.043Z,18.91
2018-04-23T06:33:08.523Z,18.9
2018-04-23T06:34:08.779Z,18.99
2018-04-23T06:35:08.776Z,18.99
2018-04-23T06:36:08.514Z,18.97
2018-04-23T06:37:09.031Z,19.07
2018-04-23T06:38:09.026Z,19.06
2018-04-23T06:39:09.030Z,19.02
2018-04-23T06:40:09.026Z,18.99
2018-04-23T06:41:09.040Z,19.05
2018-04-23T06:42:08.759Z,18.93
2018-04-23T06:43:08.774Z,19
2018-04-23T06:44:09.065Z,18.91
2018-04-23T06:45:09.022Z,18.97
2018-04-23T06:46:08.529Z,18.9
2018-04-23T06:47:09.010Z,19.05
2018-04-23T06:48:09.001Z,19.16
2018-04-23T06:49:08.484Z,19.24
2018-04-23T06:50:08.738Z,19.34
2018-04-23T06:51:08.999Z,19.42
2018-04-23T06:52:08.954Z,19.49
2018-04-23T06:53:08.990Z,19.61
2018-04-23T06:54:08.986Z,19.78
2018-04-23T06:55:08.984Z,19.85
2018-04-23T06:56:08.987Z,20.01
2018-04-23T06:57:09.212Z,20.02
2018-04-23T06:58:08.998Z,20.12
2018-04-23T06:59:08.818Z,20.34
2018-04-23T07:00:08.724Z,20.57
2018-04-23T07:01:08.977Z,20.71
2018-04-23T07:02:08.976Z,20.93
2018-04-23T07:03:08.713Z,20.88
2018-04-23T07:04:08.965Z,20.83
2018-04-23T07:05:08.908Z,21
2018-04-23T07:06:08.993Z,21.03
2018-04-23T07:07:08.453Z,21.09
2018-04-23T07:08:08.858Z,21.19
2018-04-23T07:09:08.967Z,21.21
2018-04-23T07:10:09.010Z,21.41
2018-04-23T07:11:08.736Z,21.62
2018-04-23T07:12:08.962Z,22.15
2018-04-23T07:13:08.712Z,22.48
2018-04-23T07:14:08.749Z,22.54
2018-04-23T07:15:08.984Z,22.54
2018-04-23T07:16:08.700Z,22.45
2018-04-23T07:17:08.961Z,22.44
2018-04-23T07:18:08.857Z,22.44
2018-04-23T07:19:08.447Z,22.48
2018-04-23T07:20:08.461Z,22.3
2018-04-23T07:21:08.967Z,21.96
2018-04-23T07:22:08.967Z,21.86
2018-04-23T07:23:08.955Z,21.56
2018-04-23T07:24:08.820Z,21.41
2018-04-23T07:25:08.957Z,21.3
2018-04-23T07:26:08.697Z,21.22
2018-04-23T07:27:08.700Z,21.4
2018-04-23T07:28:08.765Z,21.41
2018-04-23T07:29:08.959Z,21.53
2018-04-23T07:30:08.958Z,21.59
2018-04-23T07:31:08.441Z,21.76
2018-04-23T07:32:08.919Z,21.97
2018-04-23T07:33:08.966Z,22.07
2018-04-23T07:34:08.955Z,22.33
2018-04-23T07:35:08.692Z,22.38
2018-04-23T07:36:08.694Z,22.64
2018-04-23T07:37:09.001Z,22.89
2018-04-23T07:38:08.955Z,22.89
2018-04-23T07:39:08.963Z,22.86
2018-04-23T07:40:08.436Z,22.88
2018-04-23T07:41:08.695Z,22.79
2018-04-23T07:42:08.962Z,22.78
2018-04-23T07:43:08.707Z,22.75
2018-04-23T07:44:08.963Z,22.67
2018-04-23T07:45:08.968Z,22.51
2018-04-23T07:46:08.699Z,22.36
2018-04-23T07:47:08.958Z,22.27
2018-04-23T07:48:08.695Z,22.3
2018-04-23T07:49:08.696Z,22.33
2018-04-23T07:50:08.959Z,22.34
2018-04-23T07:51:08.948Z,22.36
2018-04-23T07:52:08.954Z,22.27
2018-04-23T07:53:08.958Z,22.38
2018-04-23T07:54:08.770Z,22.33
2018-04-23T07:55:08.958Z,22.23
2018-04-23T07:56:08.691Z,22.3
2018-04-23T07:57:08.949Z,22.26
2018-04-23T07:58:08.947Z,22.18
2018-04-23T07:59:08.946Z,22.23
2018-04-23T08:00:08.700Z,22.22
2018-04-23T08:01:08.949Z,22.3
2018-04-23T08:02:08.693Z,22.33
2018-04-23T08:03:08.692Z,22.33
2018-04-23T08:04:08.449Z,22.22
2018-04-23T08:05:08.433Z,22.02
2018-04-23T08:06:08.693Z,21.86
2018-04-23T08:07:08.691Z,21.73
2018-04-23T08:08:08.952Z,21.46
2018-04-23T08:09:08.712Z,21.4
2018-04-23T08:10:08.438Z,21.34
2018-04-23T08:11:08.973Z,21.25
2018-04-23T08:12:08.960Z,21.34
2018-04-23T08:13:08.998Z,21.27
2018-04-23T08:14:08.957Z,21.46
2018-04-23T08:15:08.699Z,21.64
2018-04-23T08:16:08.691Z,21.86
2018-04-23T08:17:08.693Z,22.07
2018-04-23T08:18:08.983Z,22.18
2018-04-23T08:19:08.956Z,22.38
2018-04-23T08:20:08.956Z,22.52
2018-04-23T08:21:08.691Z,22.79
2018-04-23T08:22:08.952Z,22.75
2018-04-23T08:23:08.954Z,22.85
2018-04-23T08:24:08.699Z,22.86
2018-04-23T08:25:08.697Z,22.91
2018-04-23T08:26:08.707Z,22.85
2018-04-23T08:27:08.699Z,22.86
2018-04-23T08:28:08.955Z,22.91
2018-04-23T08:29:08.700Z,23.01
2018-04-23T08:30:08.955Z,22.99
2018-04-23T08:31:08.959Z,22.89
2018-04-23T08:32:08.700Z,22.91
2018-04-23T08:33:08.702Z,23.04
2018-04-23T08:34:08.961Z,23
2018-04-23T08:35:08.965Z,23.06
2018-04-23T08:36:08.981Z,23.25
2018-04-23T08:37:08.987Z,23.4
2018-04-23T08:38:08.706Z,23.41
2018-04-23T08:39:08.709Z,23.45
2018-04-23T08:40:08.965Z,23.66
2018-04-23T08:41:08.717Z,23.77
2018-04-23T08:42:08.710Z,23.84
2018-04-23T08:43:08.460Z,23.85
2018-04-23T08:44:08.712Z,23.75
2018-04-23T08:45:09.193Z,23.67
2018-04-23T08:46:08.999Z,23.52
2018-04-23T08:47:08.980Z,23.47
2018-04-23T08:48:08.781Z,23.37
2018-04-23T08:49:08.721Z,23.41
2018-04-23T08:50:08.981Z,23.28
2018-04-23T08:51:08.736Z,23.26
2018-04-23T08:52:08.732Z,23.18
2018-04-23T08:53:08.755Z,23.09
2018-04-23T08:54:08.748Z,23.06
2018-04-23T08:55:09.019Z,22.82
2018-04-23T08:56:08.996Z,22.6
2018-04-23T08:57:08.992Z,22.49
2018-04-23T08:58:08.740Z,22.49
2018-04-23T08:59:08.994Z,22.67
2018-04-23T09:00:08.747Z,22.66
2018-04-23T09:01:08.934Z,22.64
2018-04-23T09:02:08.743Z,22.52
2018-04-23T09:03:09.004Z,22.51
2018-04-23T09:04:09.010Z,22.51
2018-04-23T09:05:09.008Z,22.59
2018-04-23T09:06:08.752Z,22.69
2018-04-23T09:07:08.952Z,22.85
2018-04-23T09:08:09.011Z,23.01
2018-04-23T09:09:08.755Z,23
2018-04-23T09:10:08.751Z,23.16
2018-04-23T09:11:08.496Z,23.4
2018-04-23T09:12:09.034Z,23.66
2018-04-23T09:13:09.018Z,23.89
2018-04-23T09:14:09.012Z,23.97
2018-04-23T09:15:09.018Z,23.89
2018-04-23T09:16:09.017Z,23.63
2018-04-23T09:17:09.019Z,23.34
2018-04-23T09:18:09.025Z,23.25
2018-04-23T09:19:09.019Z,23.22
2018-04-23T09:20:08.763Z,23.18
2018-04-23T09:21:08.774Z,23.07
2018-04-23T09:22:08.508Z,23
2018-04-23T09:23:08.768Z,22.85
2018-04-23T09:24:09.042Z,22.79
2018-04-23T09:25:09.241Z,22.71
2018-04-23T09:26:08.778Z,22.7
2018-04-23T09:27:09.036Z,22.71
2018-04-23T09:28:08.991Z,22.71
2018-04-23T09:29:08.784Z,22.73
2018-04-23T09:30:09.037Z,22.79
2018-04-23T09:31:08.783Z,22.94
2018-04-23T09:32:08.801Z,22.99
2018-04-23T09:33:09.042Z,23.16
2018-04-23T09:34:08.788Z,23.14
2018-04-23T09:35:08.783Z,23.25
2018-04-23T09:36:09.045Z,23.14
2018-04-23T09:37:09.062Z,23.25
2018-04-23T09:38:08.790Z,23.26
2018-04-23T09:39:09.046Z,23.32
2018-04-23T09:40:08.532Z,23.42
2018-04-23T09:41:09.057Z,23.56
2018-04-23T09:42:09.054Z,23.77
2018-04-23T09:43:09.054Z,23.84
2018-04-23T09:44:08.821Z,23.87
2018-04-23T09:45:09.055Z,23.79
2018-04-23T09:46:08.799Z,23.93
2018-04-23T09:47:08.802Z,24.08
2018-04-23T09:48:09.069Z,24.17
2018-04-23T09:49:09.076Z,24.22
2018-04-23T09:50:09.261Z,24.22
2018-04-23T09:51:08.845Z,24.24
2018-04-23T09:52:09.069Z,24.29
2018-04-23T09:53:08.815Z,24.11
2018-04-23T09:54:09.073Z,24.02
2018-04-23T09:55:08.817Z,23.85
2018-04-23T09:56:09.079Z,23.67
2018-04-23T09:57:09.080Z,23.53
2018-04-23T09:58:08.818Z,23.4
2018-04-23T09:59:09.088Z,23.32
2018-04-23T10:00:09.087Z,23.19
2018-04-23T10:01:08.592Z,23.03
2018-04-23T10:02:08.859Z,22.78
2018-04-23T10:03:08.573Z,22.57
2018-04-23T10:04:09.092Z,22.33
2018-04-23T10:05:09.093Z,22
2018-04-23T10:06:08.620Z,21.82
2018-04-23T10:07:09.097Z,21.41
2018-04-23T10:08:08.581Z,21.38
2018-04-23T10:09:09.098Z,21.15
2018-04-23T10:10:08.845Z,20.9
2018-04-23T10:11:08.841Z,20.78
2018-04-23T10:12:09.196Z,20.58
2018-04-23T10:13:09.099Z,20.58
2018-04-23T10:14:09.100Z,20.53
2018-04-23T10:15:08.843Z,20.34
2018-04-23T10:16:09.115Z,20.15
2018-04-23T10:17:09.101Z,20
2018-04-23T10:18:09.105Z,19.65
2018-04-23T10:19:08.842Z,19.23
2018-04-23T10:20:09.101Z,18.76
2018-04-23T10:21:09.443Z,18.44
2018-04-23T10:22:08.846Z,18.03
2018-04-23T10:23:09.098Z,17.62
2018-04-23T10:24:09.096Z,17.1
2018-04-23T10:25:08.837Z,16.88
2018-04-23T10:26:08.837Z,16.42
2018-04-23T10:27:09.092Z,16.11
2018-04-23T10:28:08.832Z,15.86
2018-04-23T10:29:08.832Z,15.73
2018-04-23T10:30:09.091Z,15.6
2018-04-23T10:31:09.510Z,15.38
2018-04-23T10:32:09.084Z,15.34
2018-04-23T10:33:08.815Z,15.31
2018-04-23T10:34:08.811Z,15.31
2018-04-23T10:35:08.807Z,15.34
2018-04-23T10:36:08.806Z,15.34
2018-04-23T10:37:08.801Z,15.35
2018-04-23T10:38:09.054Z,15.4
2018-04-23T10:39:08.792Z,15.43
2018-04-23T10:40:09.046Z,15.55
2018-04-23T10:41:09.044Z,15.7
2018-04-23T10:42:09.049Z,15.88
2018-04-23T10:43:09.253Z,15.96
2018-04-23T10:44:08.771Z,16.17
2018-04-23T10:45:09.028Z,16.22
2018-04-23T10:46:09.016Z,16.27
2018-04-23T10:47:09.015Z,16.32
2018-04-23T10:48:09.011Z,16.36
2018-04-23T10:49:09.012Z,16.32
2018-04-23T10:50:08.748Z,16.4
2018-04-23T10:51:08.592Z,16.48
2018-04-23T10:52:08.735Z,16.48
2018-04-23T10:53:08.986Z,16.55
2018-04-23T10:54:08.982Z,16.63
2018-04-23T10:55:08.982Z,16.7
2018-04-23T10:56:08.458Z,16.73
2018-04-23T10:57:08.989Z,16.73
2018-04-23T10:58:08.991Z,16.8
2018-04-23T10:59:08.706Z,16.87
2018-04-23T11:00:08.961Z,16.87
2018-04-23T11:01:08.709Z,16.97
2018-04-23T11:02:08.694Z,17.05
2018-04-23T11:03:08.947Z,17.07
2018-04-23T11:04:08.428Z,17.1
2018-04-23T11:05:08.943Z,17.12
2018-04-23T11:06:08.934Z,17.09
2018-04-23T11:07:08.672Z,17.06
2018-04-23T11:08:08.426Z,17.18
2018-04-23T11:09:08.675Z,17.21
2018-04-23T11:10:08.435Z,17.24
2018-04-23T11:11:08.917Z,17.35
2018-04-23T11:12:08.910Z,17.35
2018-04-23T11:13:08.650Z,17.54
2018-04-23T11:14:08.642Z,17.52
2018-04-23T11:15:08.639Z,17.42
2018-04-23T11:16:08.890Z,17.42
2018-04-23T11:17:08.376Z,17.43
2018-04-23T11:18:08.635Z,17.42
2018-04-23T11:19:08.624Z,17.35
2018-04-23T11:20:08.625Z,17.25
2018-04-23T11:21:08.485Z,17.22
2018-04-23T11:22:08.622Z,17.22
2018-04-23T11:23:08.612Z,17.27
2018-04-23T11:24:08.619Z,17.15
2018-04-23T11:25:08.609Z,17.15
2018-04-23T11:26:08.871Z,17.1
2018-04-23T11:27:08.594Z,17.09
2018-04-23T11:28:08.854Z,17.1
2018-04-23T11:29:08.591Z,17.15
2018-04-23T11:30:08.844Z,17.28
2018-04-23T11:31:08.332Z,17.31
2018-04-23T11:32:08.580Z,17.49
2018-04-23T11:33:08.578Z,17.49
2018-04-23T11:34:08.847Z,17.57
2018-04-23T11:35:08.828Z,17.69
2018-04-23T11:36:08.803Z,17.66
2018-04-23T11:37:08.307Z,17.79
2018-04-23T11:38:08.561Z,17.86
2018-04-23T11:39:08.817Z,17.87
2018-04-23T11:40:08.812Z,17.99
2018-04-23T11:41:08.816Z,18.06
2018-04-23T11:42:08.545Z,18.01
2018-04-23T11:43:08.816Z,18.06
2018-04-23T11:44:08.799Z,18.17
2018-04-23T11:45:08.922Z,18.21
2018-04-23T11:46:08.533Z,18.32
2018-04-23T11:47:08.794Z,18.27
2018-04-23T11:48:08.790Z,18.36
2018-04-23T11:49:08.267Z,18.42
2018-04-23T11:50:08.787Z,18.49
2018-04-23T11:51:08.523Z,18.54
2018-04-23T11:52:08.521Z,18.51
2018-04-23T11:53:08.313Z,18.53
2018-04-23T11:54:08.514Z,18.54
2018-04-23T11:55:08.773Z,18.61
2018-04-23T11:56:08.769Z,18.72
2018-04-23T11:57:08.506Z,18.69
2018-04-23T11:58:08.762Z,18.79
2018-04-23T11:59:08.502Z,18.82
2018-04-23T12:00:08.790Z,18.87
2018-04-23T12:01:08.773Z,18.91
2018-04-23T12:02:08.753Z,19.02
2018-04-23T12:03:08.751Z,18.97
2018-04-23T12:04:08.491Z,19.06
2018-04-23T12:05:08.755Z,19.06
2018-04-23T12:06:08.227Z,19.06
2018-04-23T12:07:08.743Z,19.09
2018-04-23T12:08:08.741Z,19.05
2018-04-23T12:09:08.960Z,19.05
2018-04-23T12:10:08.222Z,19.02
2018-04-23T12:11:08.758Z,19
2018-04-23T12:12:08.735Z,18.94
2018-04-23T12:13:08.730Z,18.97
2018-04-23T12:14:08.214Z,18.94
2018-04-23T12:15:08.729Z,18.87
2018-04-23T12:16:08.858Z,18.94
2018-04-23T12:17:08.726Z,19.02
2018-04-23T12:18:08.723Z,19.06
2018-04-23T12:19:08.474Z,19.06
2018-04-23T12:20:08.205Z,19.16
2018-04-23T12:21:08.725Z,19.17
2018-04-23T12:22:08.736Z,19.2
2018-04-23T12:23:08.713Z,19.19
2018-04-23T12:24:08.195Z,19.16
2018-04-23T12:25:08.712Z,19.17
2018-04-23T12:26:08.709Z,19.15
2018-04-23T12:27:08.452Z,19.23
2018-04-23T12:28:08.707Z,19.3
2018-04-23T12:29:08.720Z,19.31
2018-04-23T12:30:08.187Z,19.3
2018-04-23T12:31:08.449Z,19.3
2018-04-23T12:32:08.184Z,19.28
2018-04-23T12:33:08.705Z,19.24
2018-04-23T12:34:08.695Z,19.31
2018-04-23T12:35:08.434Z,19.25
2018-04-23T12:36:08.435Z,19.5
2018-04-23T12:37:08.690Z,19.57
2018-04-23T12:38:08.438Z,19.57
2018-04-23T12:39:08.175Z,19.65
2018-04-23T12:40:08.431Z,19.7
2018-04-23T12:41:08.435Z,19.8
2018-04-23T12:42:08.426Z,19.93
2018-04-23T12:43:08.688Z,20.05
2018-04-23T12:44:08.165Z,20.01
2018-04-23T12:45:08.428Z,20.2
2018-04-23T12:46:08.239Z,20.12
2018-04-23T12:47:08.680Z,20.18
2018-04-23T12:48:08.180Z,20.25
2018-04-23T12:49:08.420Z,20.26
2018-04-23T12:50:08.160Z,20.34
2018-04-23T12:51:08.160Z,20.25
2018-04-23T12:52:08.678Z,20.37
2018-04-23T12:53:08.159Z,20.42
2018-04-23T12:54:08.674Z,20.37
2018-04-23T12:55:08.446Z,20.27
2018-04-23T12:56:09.303Z,20.15